Eastlake, Michigan
Current Conditions -  °F | °C
As of 4:15 AM on Monday 24 Nov 2014 (Local Time) from KMBL Reporting Station
Overcast Overcast  
Wind Chill: 46°   Ceiling: 800
Heat Index: 46°   Visibility: 2mi
Dew Point: 43°   Wind: 0mph
Humidity: 87%   Direction: NA
Pressure: 29"   Gusts: NA
Location:  44.24°N, 86.3°W
Report Text: KMBL 240915Z AUTO 00000KT 2SM BKN008 OVC013 08/06 A2900 RMK AO1 P0001
Loading
Personal Weather Stations






























Interactive Weather Map New forecast layout! Learn more

10-Day Weather Forecast

Advertisements
Track Severe Weather on mobile